sensor_id;sensor_type;location;lat;lon;timestamp;pressure;altitude;pressure_sealevel;temperature;humidity
34482;BME280;20720;48.886;9.388;2022-07-24T00:01:04;98497.91;;;22.68;100.00
34482;BME280;20720;48.886;9.388;2022-07-24T00:03:29;98490.41;;;22.45;100.00
34482;BME280;20720;48.886;9.388;2022-07-24T00:05:54;98494.97;;;22.50;100.00
34482;BME280;20720;48.886;9.388;2022-07-24T00:08:19;98493.66;;;22.27;100.00
34482;BME280;20720;48.886;9.388;2022-07-24T00:10:44;98491.44;;;22.69;100.00
34482;BME280;20720;48.886;9.388;2022-07-24T00:13:10;98498.09;;;22.87;100.00
34482;BME280;20720;48.886;9.388;2022-07-24T00:15:35;98493.84;;;22.76;100.00
34482;BME280;20720;48.886;9.388;2022-07-24T00:18:00;98495.16;;;22.83;100.00
34482;BME280;20720;48.886;9.388;2022-07-24T00:20:25;98502.94;;;22.80;100.00
34482;BME280;20720;48.886;9.388;2022-07-24T00:22:50;98502.38;;;22.83;100.00
34482;BME280;20720;48.886;9.388;2022-07-24T00:25:15;98497.91;;;22.43;100.00
34482;BME280;20720;48.886;9.388;2022-07-24T00:27:41;98493.88;;;22.71;100.00
34482;BME280;20720;48.886;9.388;2022-07-24T00:30:06;98488.78;;;22.74;100.00
34482;BME280;20720;48.886;9.388;2022-07-24T00:32:32;98499.50;;;22.74;100.00
34482;BME280;20720;48.886;9.388;2022-07-24T00:34:57;98486.66;;;22.56;100.00
34482;BME280;20720;48.886;9.388;2022-07-24T00:37:22;98489.88;;;22.53;100.00
34482;BME280;20720;48.886;9.388;2022-07-24T00:39:47;98495.25;;;22.48;100.00
34482;BME280;20720;48.886;9.388;2022-07-24T00:42:12;98491.53;;;22.09;100.00
34482;BME280;20720;48.886;9.388;2022-07-24T00:44:38;98488.34;;;21.97;100.00
34482;BME280;20720;48.886;9.388;2022-07-24T00:47:03;98484.59;;;22.18;100.00
34482;BME280;20720;48.886;9.388;2022-07-24T00:49:28;98487.25;;;22.08;100.00
34482;BME280;20720;48.886;9.388;2022-07-24T00:51:55;98483.22;;;22.20;100.00
34482;BME280;20720;48.886;9.388;2022-07-24T00:54:21;98489.13;;;22.07;100.00
34482;BME280;20720;48.886;9.388;2022-07-24T00:56:47;98486.16;;;21.74;100.00
34482;BME280;20720;48.886;9.388;2022-07-24T00:59:13;98492.53;;;21.42;100.00
34482;BME280;20720;48.886;9.388;2022-07-24T01:01:38;98491.03;;;21.82;100.00
34482;BME280;20720;48.886;9.388;2022-07-24T01:04:04;98493.38;;;21.58;100.00
34482;BME280;20720;48.886;9.388;2022-07-24T01:06:29;98491.50;;;21.74;100.00
34482;BME280;20720;48.886;9.388;2022-07-24T01:08:54;98493.41;;;21.98;100.00
34482;BME280;20720;48.886;9.388;2022-07-24T01:11:20;98490.41;;;21.54;100.00
34482;BME280;20720;48.886;9.388;2022-07-24T01:13:49;98492.63;;;21.83;100.00
34482;BME280;20720;48.886;9.388;2022-07-24T01:16:14;98485.94;;;21.95;100.00
34482;BME280;20720;48.886;9.388;2022-07-24T01:18:40;98491.00;;;21.87;100.00
34482;BME280;20720;48.886;9.388;2022-07-24T01:21:05;98492.56;;;21.63;100.00
34482;BME280;20720;48.886;9.388;2022-07-24T01:23:31;98489.41;;;21.81;100.00
34482;BME280;20720;48.886;9.388;2022-07-24T01:25:56;98496.56;;;21.65;100.00
34482;BME280;20720;48.886;9.388;2022-07-24T01:28:22;98494.75;;;21.81;100.00
34482;BME280;20720;48.886;9.388;2022-07-24T01:30:47;98496.28;;;21.41;100.00
34482;BME280;20720;48.886;9.388;2022-07-24T01:33:12;98499.41;;;21.13;100.00
34482;BME280;20720;48.886;9.388;2022-07-24T01:35:38;98494.41;;;21.47;100.00
34482;BME280;20720;48.886;9.388;2022-07-24T01:38:04;98498.88;;;21.06;100.00
34482;BME280;20720;48.886;9.388;2022-07-24T01:40:29;98505.69;;;20.87;100.00
34482;BME280;20720;48.886;9.388;2022-07-24T01:42:55;98507.22;;;21.25;100.00
34482;BME280;20720;48.886;9.388;2022-07-24T01:45:20;98516.59;;;21.37;100.00
34482;BME280;20720;48.886;9.388;2022-07-24T01:47:46;98509.66;;;21.36;100.00
34482;BME280;20720;48.886;9.388;2022-07-24T01:50:11;98514.41;;;21.29;100.00
34482;BME280;20720;48.886;9.388;2022-07-24T01:52:37;98505.91;;;21.37;100.00
34482;BME280;20720;48.886;9.388;2022-07-24T01:55:03;98505.94;;;21.47;100.00
34482;BME280;20720;48.886;9.388;2022-07-24T01:57:28;98514.66;;;21.18;100.00
34482;BME280;20720;48.886;9.388;2022-07-24T01:59:53;98506.13;;;21.26;100.00
34482;BME280;20720;48.886;9.388;2022-07-24T02:02:18;98501.09;;;21.39;100.00
34482;BME280;20720;48.886;9.388;2022-07-24T02:04:43;98501.13;;;20.83;100.00
34482;BME280;20720;48.886;9.388;2022-07-24T02:07:08;98506.88;;;20.59;100.00
34482;BME280;20720;48.886;9.388;2022-07-24T02:09:34;98518.38;;;20.60;100.00
34482;BME280;20720;48.886;9.388;2022-07-24T02:11:59;98525.16;;;20.36;100.00
34482;BME280;20720;48.886;9.388;2022-07-24T02:14:24;98534.50;;;20.80;100.00
34482;BME280;20720;48.886;9.388;2022-07-24T02:16:49;98526.00;;;20.93;100.00
34482;BME280;20720;48.886;9.388;2022-07-24T02:19:14;98526.56;;;20.95;100.00
34482;BME280;20720;48.886;9.388;2022-07-24T02:21:40;98513.66;;;20.82;100.00
34482;BME280;20720;48.886;9.388;2022-07-24T02:24:05;98518.84;;;20.99;100.00
34482;BME280;20720;48.886;9.388;2022-07-24T02:26:30;98512.69;;;20.98;100.00
34482;BME280;20720;48.886;9.388;2022-07-24T02:28:55;98516.69;;;20.96;100.00
34482;BME280;20720;48.886;9.388;2022-07-24T02:31:21;98516.66;;;20.91;100.00
34482;BME280;20720;48.886;9.388;2022-07-24T02:33:46;98499.91;;;21.00;100.00
34482;BME280;20720;48.886;9.388;2022-07-24T02:36:11;98501.72;;;20.95;100.00
34482;BME280;20720;48.886;9.388;2022-07-24T02:38:37;98500.38;;;20.92;100.00
34482;BME280;20720;48.886;9.388;2022-07-24T02:41:02;98509.38;;;20.76;100.00
34482;BME280;20720;48.886;9.388;2022-07-24T02:43:27;98506.19;;;20.84;100.00
34482;BME280;20720;48.886;9.388;2022-07-24T02:45:52;98504.41;;;21.00;100.00
34482;BME280;20720;48.886;9.388;2022-07-24T02:48:18;98522.13;;;20.59;100.00
34482;BME280;20720;48.886;9.388;2022-07-24T02:50:43;98515.09;;;20.48;100.00
34482;BME280;20720;48.886;9.388;2022-07-24T02:53:08;98531.28;;;20.05;100.00
34482;BME280;20720;48.886;9.388;2022-07-24T02:55:33;98552.09;;;20.03;100.00
34482;BME280;20720;48.886;9.388;2022-07-24T02:57:59;98575.38;;;20.44;100.00
34482;BME280;20720;48.886;9.388;2022-07-24T03:00:24;98564.31;;;20.62;100.00
34482;BME280;20720;48.886;9.388;2022-07-24T03:02:49;98568.09;;;20.66;100.00
34482;BME280;20720;48.886;9.388;2022-07-24T03:05:15;98563.38;;;20.41;100.00
34482;BME280;20720;48.886;9.388;2022-07-24T03:07:40;98562.25;;;20.32;100.00
34482;BME280;20720;48.886;9.388;2022-07-24T03:10:07;98563.00;;;20.28;100.00
34482;BME280;20720;48.886;9.388;2022-07-24T03:12:32;98572.59;;;20.29;100.00
34482;BME280;20720;48.886;9.388;2022-07-24T03:14:57;98573.47;;;20.34;100.00
34482;BME280;20720;48.886;9.388;2022-07-24T03:17:23;98570.28;;;20.37;100.00
34482;BME280;20720;48.886;9.388;2022-07-24T03:19:48;98578.69;;;19.93;100.00
34482;BME280;20720;48.886;9.388;2022-07-24T03:22:13;98578.47;;;19.99;100.00
34482;BME280;20720;48.886;9.388;2022-07-24T03:24:38;98599.50;;;19.96;100.00
34482;BME280;20720;48.886;9.388;2022-07-24T03:27:03;98604.63;;;20.29;100.00
34482;BME280;20720;48.886;9.388;2022-07-24T03:29:29;98596.13;;;20.32;100.00
34482;BME280;20720;48.886;9.388;2022-07-24T03:31:54;98591.22;;;20.19;100.00
34482;BME280;20720;48.886;9.388;2022-07-24T03:34:19;98587.47;;;20.20;100.00
34482;BME280;20720;48.886;9.388;2022-07-24T03:36:44;98588.97;;;20.11;100.00
34482;BME280;20720;48.886;9.388;2022-07-24T03:39:09;98593.97;;;20.02;100.00
34482;BME280;20720;48.886;9.388;2022-07-24T03:41:34;98597.69;;;20.01;100.00
34482;BME280;20720;48.886;9.388;2022-07-24T03:44:00;98619.75;;;19.92;100.00
34482;BME280;20720;48.886;9.388;2022-07-24T03:46:25;98624.88;;;19.72;100.00
34482;BME280;20720;48.886;9.388;2022-07-24T03:48:52;98637.44;;;19.76;100.00
34482;BME280;20720;48.886;9.388;2022-07-24T03:51:18;98649.34;;;19.68;100.00
34482;BME280;20720;48.886;9.388;2022-07-24T03:53:43;98651.59;;;19.77;100.00
34482;BME280;20720;48.886;9.388;2022-07-24T03:56:08;98656.34;;;19.75;100.00
34482;BME280;20720;48.886;9.388;2022-07-24T03:58:34;98667.16;;;19.85;100.00
34482;BME280;20720;48.886;9.388;2022-07-24T04:00:59;98663.72;;;19.89;100.00
34482;BME280;20720;48.886;9.388;2022-07-24T04:03:24;98656.91;;;19.98;100.00
34482;BME280;20720;48.886;9.388;2022-07-24T04:05:50;98655.56;;;20.01;100.00
34482;BME280;20720;48.886;9.388;2022-07-24T04:08:15;98649.22;;;20.07;100.00
34482;BME280;20720;48.886;9.388;2022-07-24T04:10:40;98644.13;;;20.00;100.00
34482;BME280;20720;48.886;9.388;2022-07-24T04:13:05;98636.03;;;19.95;100.00
34482;BME280;20720;48.886;9.388;2022-07-24T04:15:30;98633.53;;;20.10;100.00
34482;BME280;20720;48.886;9.388;2022-07-24T04:17:56;98635.97;;;19.85;100.00
34482;BME280;20720;48.886;9.388;2022-07-24T04:20:21;98641.19;;;20.02;100.00
34482;BME280;20720;48.886;9.388;2022-07-24T04:22:47;98637.03;;;20.16;100.00
34482;BME280;20720;48.886;9.388;2022-07-24T04:25:12;98627.56;;;20.25;100.00
34482;BME280;20720;48.886;9.388;2022-07-24T04:27:38;98614.84;;;20.37;100.00
34482;BME280;20720;48.886;9.388;2022-07-24T04:30:03;98605.31;;;20.46;100.00
34482;BME280;20720;48.886;9.388;2022-07-24T04:32:28;98607.41;;;20.44;100.00
34482;BME280;20720;48.886;9.388;2022-07-24T04:34:53;98584.59;;;20.63;100.00
34482;BME280;20720;48.886;9.388;2022-07-24T04:37:19;98580.97;;;20.37;100.00
34482;BME280;20720;48.886;9.388;2022-07-24T04:39:44;98572.78;;;20.54;100.00
34482;BME280;20720;48.886;9.388;2022-07-24T04:42:09;98567.59;;;20.74;100.00
34482;BME280;20720;48.886;9.388;2022-07-24T04:44:34;98556.19;;;20.89;100.00
34482;BME280;20720;48.886;9.388;2022-07-24T04:46:59;98549.78;;;20.90;100.00
34482;BME280;20720;48.886;9.388;2022-07-24T04:49:24;98536.56;;;21.10;100.00
34482;BME280;20720;48.886;9.388;2022-07-24T04:51:50;98529.09;;;21.12;100.00
34482;BME280;20720;48.886;9.388;2022-07-24T04:54:15;98518.63;;;21.05;100.00
34482;BME280;20720;48.886;9.388;2022-07-24T04:56:40;98518.19;;;21.33;100.00
34482;BME280;20720;48.886;9.388;2022-07-24T04:59:05;98511.28;;;21.47;100.00
34482;BME280;20720;48.886;9.388;2022-07-24T05:01:30;98492.88;;;21.86;100.00
34482;BME280;20720;48.886;9.388;2022-07-24T05:03:56;98488.22;;;21.21;100.00
34482;BME280;20720;48.886;9.388;2022-07-24T05:06:22;98493.94;;;21.90;100.00
34482;BME280;20720;48.886;9.388;2022-07-24T05:08:47;98480.78;;;22.49;100.00
34482;BME280;20720;48.886;9.388;2022-07-24T05:11:12;98498.97;;;23.26;100.00
34482;BME280;20720;48.886;9.388;2022-07-24T05:13:37;98530.00;;;23.91;100.00
34482;BME280;20720;48.886;9.388;2022-07-24T05:16:03;98544.25;;;22.69;100.00
34482;BME280;20720;48.886;9.388;2022-07-24T05:18:28;98534.41;;;23.72;100.00
34482;BME280;20720;48.886;9.388;2022-07-24T05:20:53;98541.28;;;24.84;100.00
34482;BME280;20720;48.886;9.388;2022-07-24T05:23:18;98569.09;;;25.45;100.00
34482;BME280;20720;48.886;9.388;2022-07-24T05:25:44;98588.47;;;25.66;100.00
34482;BME280;20720;48.886;9.388;2022-07-24T05:28:09;98608.25;;;25.93;100.00
34482;BME280;20720;48.886;9.388;2022-07-24T05:30:34;98610.59;;;26.00;100.00
34482;BME280;20720;48.886;9.388;2022-07-24T05:32:59;98624.91;;;26.19;100.00
34482;BME280;20720;48.886;9.388;2022-07-24T05:35:24;98631.56;;;26.40;100.00
34482;BME280;20720;48.886;9.388;2022-07-24T05:37:49;98624.25;;;26.08;100.00
34482;BME280;20720;48.886;9.388;2022-07-24T05:40:15;98632.31;;;26.59;100.00
34482;BME280;20720;48.886;9.388;2022-07-24T05:42:40;98644.84;;;27.15;100.00
34482;BME280;20720;48.886;9.388;2022-07-24T05:45:05;98660.75;;;27.16;100.00
34482;BME280;20720;48.886;9.388;2022-07-24T05:47:37;98664.84;;;27.14;100.00
34482;BME280;20720;48.886;9.388;2022-07-24T05:50:05;98664.13;;;26.06;100.00
34482;BME280;20720;48.886;9.388;2022-07-24T05:52:30;98653.44;;;26.20;100.00
34482;BME280;20720;48.886;9.388;2022-07-24T05:54:56;98655.66;;;27.15;100.00
34482;BME280;20720;48.886;9.388;2022-07-24T05:57:21;98663.75;;;27.82;100.00
34482;BME280;20720;48.886;9.388;2022-07-24T05:59:46;98676.56;;;28.40;100.00
34482;BME280;20720;48.886;9.388;2022-07-24T06:02:11;98678.28;;;27.73;99.40
34482;BME280;20720;48.886;9.388;2022-07-24T06:04:36;98679.00;;;27.65;100.00
34482;BME280;20720;48.886;9.388;2022-07-24T06:07:06;98676.81;;;27.53;100.00
34482;BME280;20720;48.886;9.388;2022-07-24T06:09:32;98682.59;;;27.87;100.00
34482;BME280;20720;48.886;9.388;2022-07-24T06:11:57;98685.66;;;28.57;95.83
34482;BME280;20720;48.886;9.388;2022-07-24T06:14:22;98692.66;;;28.09;98.68
34482;BME280;20720;48.886;9.388;2022-07-24T06:16:47;98691.25;;;26.84;100.00
34482;BME280;20720;48.886;9.388;2022-07-24T06:19:12;98684.28;;;27.43;100.00
34482;BME280;20720;48.886;9.388;2022-07-24T06:21:37;98683.09;;;27.76;100.00
34482;BME280;20720;48.886;9.388;2022-07-24T06:24:03;98689.47;;;29.31;93.72
34482;BME280;20720;48.886;9.388;2022-07-24T06:26:28;98693.63;;;28.85;92.03
34482;BME280;20720;48.886;9.388;2022-07-24T06:28:53;98686.81;;;27.53;100.00
34482;BME280;20720;48.886;9.388;2022-07-24T06:31:18;98698.00;;;27.73;100.00
34482;BME280;20720;48.886;9.388;2022-07-24T06:33:44;98694.50;;;28.71;98.46
34482;BME280;20720;48.886;9.388;2022-07-24T06:36:09;98700.09;;;30.06;87.68
34482;BME280;20720;48.886;9.388;2022-07-24T06:38:35;98709.28;;;29.49;85.33
34482;BME280;20720;48.886;9.388;2022-07-24T06:41:00;98708.31;;;28.12;100.00
34482;BME280;20720;48.886;9.388;2022-07-24T06:43:26;98698.22;;;29.67;90.10
34482;BME280;20720;48.886;9.388;2022-07-24T06:45:51;98706.69;;;30.91;82.45
34482;BME280;20720;48.886;9.388;2022-07-24T06:48:16;98711.16;;;30.78;82.54
34482;BME280;20720;48.886;9.388;2022-07-24T06:50:41;98715.59;;;31.17;79.48
34482;BME280;20720;48.886;9.388;2022-07-24T06:53:06;98710.41;;;31.41;77.43
34482;BME280;20720;48.886;9.388;2022-07-24T06:55:31;98709.03;;;30.15;79.26
34482;BME280;20720;48.886;9.388;2022-07-24T06:57:57;98709.03;;;31.18;75.23
34482;BME280;20720;48.886;9.388;2022-07-24T07:00:22;98716.75;;;31.91;70.35
34482;BME280;20720;48.886;9.388;2022-07-24T07:02:47;98709.47;;;29.52;77.45
34482;BME280;20720;48.886;9.388;2022-07-24T07:05:12;98714.38;;;29.81;81.11
34482;BME280;20720;48.886;9.388;2022-07-24T07:07:38;98709.56;;;30.86;76.80
34482;BME280;20720;48.886;9.388;2022-07-24T07:10:04;98710.84;;;31.52;70.48
34482;BME280;20720;48.886;9.388;2022-07-24T07:12:29;98717.16;;;31.18;70.57
34482;BME280;20720;48.886;9.388;2022-07-24T07:14:54;98710.91;;;31.43;68.17
34482;BME280;20720;48.886;9.388;2022-07-24T07:17:20;98710.56;;;32.11;67.53
34482;BME280;20720;48.886;9.388;2022-07-24T07:19:45;98715.22;;;32.31;69.77
34482;BME280;20720;48.886;9.388;2022-07-24T07:22:10;98719.06;;;32.92;66.61
34482;BME280;20720;48.886;9.388;2022-07-24T07:24:36;98725.94;;;33.55;63.75
34482;BME280;20720;48.886;9.388;2022-07-24T07:27:01;98717.00;;;32.07;68.58
34482;BME280;20720;48.886;9.388;2022-07-24T07:29:26;98715.06;;;32.90;65.80
34482;BME280;20720;48.886;9.388;2022-07-24T07:31:52;98722.94;;;33.36;63.32
34482;BME280;20720;48.886;9.388;2022-07-24T07:34:17;98726.16;;;33.50;60.36
34482;BME280;20720;48.886;9.388;2022-07-24T07:36:42;98720.78;;;34.38;58.63
34482;BME280;20720;48.886;9.388;2022-07-24T07:39:07;98728.06;;;34.86;57.08
34482;BME280;20720;48.886;9.388;2022-07-24T07:41:32;98716.88;;;30.68;67.46
34482;BME280;20720;48.886;9.388;2022-07-24T07:43:58;98723.22;;;27.96;84.91
34482;BME280;20720;48.886;9.388;2022-07-24T07:46:23;98721.03;;;30.40;78.71
34482;BME280;20720;48.886;9.388;2022-07-24T07:48:49;98719.84;;;31.35;73.06
34482;BME280;20720;48.886;9.388;2022-07-24T07:51:14;98722.66;;;33.17;65.30
34482;BME280;20720;48.886;9.388;2022-07-24T07:53:39;98731.41;;;33.67;62.23
34482;BME280;20720;48.886;9.388;2022-07-24T07:56:04;98733.53;;;30.84;70.60
34482;BME280;20720;48.886;9.388;2022-07-24T07:58:30;98733.03;;;32.70;64.30
34482;BME280;20720;48.886;9.388;2022-07-24T08:00:55;98731.13;;;33.36;63.42
34482;BME280;20720;48.886;9.388;2022-07-24T08:03:20;98728.16;;;33.41;59.44
34482;BME280;20720;48.886;9.388;2022-07-24T08:05:45;98726.34;;;34.42;57.33
34482;BME280;20720;48.886;9.388;2022-07-24T08:08:11;98725.06;;;34.91;55.51
34482;BME280;20720;48.886;9.388;2022-07-24T08:10:36;98725.41;;;35.17;53.74
34482;BME280;20720;48.886;9.388;2022-07-24T08:13:01;98729.81;;;33.66;58.96
34482;BME280;20720;48.886;9.388;2022-07-24T08:15:26;98727.16;;;32.48;61.42
34482;BME280;20720;48.886;9.388;2022-07-24T08:17:52;98722.63;;;33.05;60.91
34482;BME280;20720;48.886;9.388;2022-07-24T08:20:18;98722.41;;;31.23;64.39
34482;BME280;20720;48.886;9.388;2022-07-24T08:22:44;98717.22;;;31.09;69.91
34482;BME280;20720;48.886;9.388;2022-07-24T08:25:10;98716.06;;;30.16;69.80
34482;BME280;20720;48.886;9.388;2022-07-24T08:27:35;98716.88;;;29.69;78.15
34482;BME280;20720;48.886;9.388;2022-07-24T08:30:01;98715.50;;;32.80;64.62
34482;BME280;20720;48.886;9.388;2022-07-24T08:32:26;98716.16;;;34.14;59.25
34482;BME280;20720;48.886;9.388;2022-07-24T08:34:51;98708.88;;;34.18;57.21
34482;BME280;20720;48.886;9.388;2022-07-24T08:37:18;98704.75;;;34.76;52.74
34482;BME280;20720;48.886;9.388;2022-07-24T08:39:43;98706.69;;;34.76;53.60
34482;BME280;20720;48.886;9.388;2022-07-24T08:42:08;98702.63;;;33.01;57.54
34482;BME280;20720;48.886;9.388;2022-07-24T08:44:34;98706.75;;;32.54;60.20
34482;BME280;20720;48.886;9.388;2022-07-24T08:46:59;98705.03;;;32.49;62.65
34482;BME280;20720;48.886;9.388;2022-07-24T08:49:24;98693.97;;;31.75;62.23
34482;BME280;20720;48.886;9.388;2022-07-24T08:51:51;98700.78;;;32.93;60.50
34482;BME280;20720;48.886;9.388;2022-07-24T08:54:17;98692.50;;;34.31;54.49
34482;BME280;20720;48.886;9.388;2022-07-24T08:56:42;98696.16;;;35.33;53.31
34482;BME280;20720;48.886;9.388;2022-07-24T08:59:20;98692.34;;;34.39;55.10
34482;BME280;20720;48.886;9.388;2022-07-24T09:01:49;98706.06;;;36.54;50.14
34482;BME280;20720;48.886;9.388;2022-07-24T09:06:59;98699.34;;;35.51;50.53
34482;BME280;20720;48.886;9.388;2022-07-24T09:09:24;98699.50;;;34.56;53.04
34482;BME280;20720;48.886;9.388;2022-07-24T09:11:50;98694.56;;;34.09;54.48
34482;BME280;20720;48.886;9.388;2022-07-24T09:14:29;98704.53;;;34.30;53.52
34482;BME280;20720;48.886;9.388;2022-07-24T09:17:00;98700.34;;;35.15;50.18
34482;BME280;20720;48.886;9.388;2022-07-24T09:19:26;98697.31;;;34.09;56.07
34482;BME280;20720;48.886;9.388;2022-07-24T09:21:51;98691.91;;;35.82;48.76
34482;BME280;20720;48.886;9.388;2022-07-24T09:24:19;98694.75;;;36.21;49.22
34482;BME280;20720;48.886;9.388;2022-07-24T09:26:49;98691.28;;;35.11;49.60
34482;BME280;20720;48.886;9.388;2022-07-24T09:29:15;98697.53;;;36.40;48.58
34482;BME280;20720;48.886;9.388;2022-07-24T09:32:00;98699.44;;;37.84;45.19
34482;BME280;20720;48.886;9.388;2022-07-24T09:34:27;98693.59;;;36.75;47.00
34482;BME280;20720;48.886;9.388;2022-07-24T09:36:59;98696.25;;;38.04;43.50
34482;BME280;20720;48.886;9.388;2022-07-24T09:39:26;98697.50;;;37.61;41.92
34482;BME280;20720;48.886;9.388;2022-07-24T09:41:52;98696.78;;;38.43;41.41
34482;BME280;20720;48.886;9.388;2022-07-24T09:44:18;98699.72;;;38.57;40.00
34482;BME280;20720;48.886;9.388;2022-07-24T09:46:47;98689.16;;;38.03;41.04
34482;BME280;20720;48.886;9.388;2022-07-24T09:49:19;98694.56;;;37.47;39.60
34482;BME280;20720;48.886;9.388;2022-07-24T09:51:45;98691.69;;;37.21;42.00
34482;BME280;20720;48.886;9.388;2022-07-24T09:54:34;98683.59;;;35.01;44.54
34482;BME280;20720;48.886;9.388;2022-07-24T09:57:45;98686.53;;;36.21;43.93
34482;BME280;20720;48.886;9.388;2022-07-24T09:59:46;98688.97;;;37.21;41.53
34482;BME280;20720;48.886;9.388;2022-07-24T10:02:16;98677.25;;;35.90;41.46
34482;BME280;20720;48.886;9.388;2022-07-24T10:04:42;98680.72;;;34.82;43.82
34482;BME280;20720;48.886;9.388;2022-07-24T10:07:12;98686.53;;;36.21;42.08
34482;BME280;20720;48.886;9.388;2022-07-24T10:09:40;98674.63;;;35.63;43.24
34482;BME280;20720;48.886;9.388;2022-07-24T10:12:06;98671.78;;;35.28;42.90
34482;BME280;20720;48.886;9.388;2022-07-24T10:14:35;98669.69;;;34.51;43.69
34482;BME280;20720;48.886;9.388;2022-07-24T10:17:04;98680.28;;;36.77;41.05
34482;BME280;20720;48.886;9.388;2022-07-24T10:19:31;98673.50;;;37.55;39.61
34482;BME280;20720;48.886;9.388;2022-07-24T10:22:01;98668.59;;;38.49;36.88
34482;BME280;20720;48.886;9.388;2022-07-24T10:24:41;98665.31;;;37.32;40.07
34482;BME280;20720;48.886;9.388;2022-07-24T10:27:22;98664.72;;;37.23;40.20
34482;BME280;20720;48.886;9.388;2022-07-24T10:29:47;98662.44;;;37.51;37.87
34482;BME280;20720;48.886;9.388;2022-07-24T10:32:13;98664.91;;;37.56;38.83
34482;BME280;20720;48.886;9.388;2022-07-24T10:34:43;98659.13;;;37.88;38.37
34482;BME280;20720;48.886;9.388;2022-07-24T10:39:46;98658.06;;;36.41;39.45
34482;BME280;20720;48.886;9.388;2022-07-24T10:42:12;98662.75;;;36.06;40.46
34482;BME280;20720;48.886;9.388;2022-07-24T10:44:37;98653.75;;;32.72;46.14
34482;BME280;20720;48.886;9.388;2022-07-24T10:49:36;98647.38;;;35.20;42.67
34482;BME280;20720;48.886;9.388;2022-07-24T10:52:01;98647.53;;;34.00;46.38
34482;BME280;20720;48.886;9.388;2022-07-24T10:54:26;98654.38;;;37.13;40.65
34482;BME280;20720;48.886;9.388;2022-07-24T10:56:52;98642.47;;;37.28;39.27
34482;BME280;20720;48.886;9.388;2022-07-24T10:59:31;98641.75;;;36.48;39.56
34482;BME280;20720;48.886;9.388;2022-07-24T11:01:56;98644.94;;;38.12;38.19
34482;BME280;20720;48.886;9.388;2022-07-24T11:06:59;98643.78;;;38.13;38.79
34482;BME280;20720;48.886;9.388;2022-07-24T11:09:25;98641.38;;;38.71;38.32
34482;BME280;20720;48.886;9.388;2022-07-24T11:14:17;98638.53;;;39.95;35.23
34482;BME280;20720;48.886;9.388;2022-07-24T11:16:42;98634.25;;;41.33;33.00
34482;BME280;20720;48.886;9.388;2022-07-24T11:21:39;98628.69;;;41.04;33.78
34482;BME280;20720;48.886;9.388;2022-07-24T11:26:49;98620.47;;;40.01;34.07
34482;BME280;20720;48.886;9.388;2022-07-24T11:29:16;98619.09;;;40.42;33.57
34482;BME280;20720;48.886;9.388;2022-07-24T11:31:42;98618.44;;;41.47;31.80
34482;BME280;20720;48.886;9.388;2022-07-24T11:34:08;98612.81;;;42.14;31.04
34482;BME280;20720;48.886;9.388;2022-07-24T11:36:34;98611.31;;;41.78;30.70
34482;BME280;20720;48.886;9.388;2022-07-24T11:38:59;98602.69;;;39.33;32.52
34482;BME280;20720;48.886;9.388;2022-07-24T11:41:24;98612.38;;;39.68;33.79
34482;BME280;20720;48.886;9.388;2022-07-24T11:43:53;98598.16;;;39.55;32.91
34482;BME280;20720;48.886;9.388;2022-07-24T11:46:36;98602.56;;;40.42;31.92
34482;BME280;20720;48.886;9.388;2022-07-24T11:49:04;98598.66;;;39.20;32.93
34482;BME280;20720;48.886;9.388;2022-07-24T11:51:30;98593.03;;;37.73;35.63
34482;BME280;20720;48.886;9.388;2022-07-24T11:53:56;98590.56;;;38.94;33.77
34482;BME280;20720;48.886;9.388;2022-07-24T11:56:21;98587.94;;;38.02;35.86
34482;BME280;20720;48.886;9.388;2022-07-24T11:58:46;98577.28;;;39.03;33.66
34482;BME280;20720;48.886;9.388;2022-07-24T12:01:21;98578.19;;;37.78;36.13
34482;BME280;20720;48.886;9.388;2022-07-24T12:03:53;98583.72;;;37.82;35.45
34482;BME280;20720;48.886;9.388;2022-07-24T12:06:19;98577.72;;;34.82;39.76
34482;BME280;20720;48.886;9.388;2022-07-24T12:08:45;98568.41;;;33.88;43.92
34482;BME280;20720;48.886;9.388;2022-07-24T12:11:10;98559.28;;;33.57;45.49
34482;BME280;20720;48.886;9.388;2022-07-24T12:13:36;98567.34;;;37.10;40.60
34482;BME280;20720;48.886;9.388;2022-07-24T12:16:05;98565.00;;;39.99;35.58
34482;BME280;20720;48.886;9.388;2022-07-24T12:18:30;98564.03;;;35.29;40.58
34482;BME280;20720;48.886;9.388;2022-07-24T12:20:59;98552.00;;;38.87;36.50
34482;BME280;20720;48.886;9.388;2022-07-24T12:23:24;98559.69;;;39.66;33.47
34482;BME280;20720;48.886;9.388;2022-07-24T12:25:50;98562.81;;;37.21;37.10
34482;BME280;20720;48.886;9.388;2022-07-24T12:28:18;98551.69;;;36.65;37.69
34482;BME280;20720;48.886;9.388;2022-07-24T12:30:45;98546.88;;;38.45;34.70
34482;BME280;20720;48.886;9.388;2022-07-24T12:35:51;98544.19;;;40.19;32.63
34482;BME280;20720;48.886;9.388;2022-07-24T12:38:23;98538.81;;;40.54;32.56
34482;BME280;20720;48.886;9.388;2022-07-24T12:40:48;98531.25;;;38.53;36.57
34482;BME280;20720;48.886;9.388;2022-07-24T12:43:13;98530.97;;;40.91;32.50
34482;BME280;20720;48.886;9.388;2022-07-24T12:45:38;98527.22;;;39.31;33.38
34482;BME280;20720;48.886;9.388;2022-07-24T12:48:25;98527.91;;;39.17;34.69
34482;BME280;20720;48.886;9.388;2022-07-24T12:53:28;98519.28;;;38.35;34.74
34482;BME280;20720;48.886;9.388;2022-07-24T12:56:32;98520.69;;;40.71;32.03
34482;BME280;20720;48.886;9.388;2022-07-24T13:01:13;98519.00;;;36.99;35.20
34482;BME280;20720;48.886;9.388;2022-07-24T13:03:39;98509.06;;;37.69;35.59
34482;BME280;20720;48.886;9.388;2022-07-24T13:06:04;98505.91;;;38.67;33.65
34482;BME280;20720;48.886;9.388;2022-07-24T13:08:29;98490.31;;;38.41;34.63
34482;BME280;20720;48.886;9.388;2022-07-24T13:10:55;98501.66;;;40.09;31.75
34482;BME280;20720;48.886;9.388;2022-07-24T13:13:20;98501.31;;;41.52;31.57
34482;BME280;20720;48.886;9.388;2022-07-24T13:15:45;98496.31;;;39.55;32.35